Time;durP1;ratioP1;P1;durP2;ratioP2;P2;SDS_P1;SDS_P2;PMS_P1;PMS_P2;Temp;Humidity;BMP_temperature;BMP_pressure;BME280_temperature;BME280_humidity;BME280_pressure;Samples;Min_cycle;Max_cycle;Signal;HPM_P1;HPM_P2
2023/12/15 13:32:57;;;;;;;6.28;2.95;;;;;;;17.67;54.33;103452.16;5060863;27;97753;-74
2023/12/15 13:35:24;;;;;;;3.85;3.10;;;;;;;17.95;54.07;103443.22;5028392;27;98401;-80
2023/12/15 13:37:51;;;;;;;9.77;3.45;;;;;;;18.34;53.97;103443.47;5016979;27;96849;-70
2023/12/15 13:40:18;;;;;;;4.80;3.08;;;;;;;18.81;53.92;103450.50;5026436;27;97161;-79
2023/12/15 13:42:46;;;;;;;6.95;3.20;;;;;;;19.22;53.62;103450.50;5016754;27;97714;-79
2023/12/15 13:45:13;;;;;;;5.40;3.33;;;;;;;19.59;52.94;103443.50;5036799;27;96940;-81
2023/12/15 13:47:39;;;;;;;5.35;3.00;;;;;;;19.90;52.38;103447.72;5033084;27;100030;-80
2023/12/15 13:50:07;;;;;;;3.95;2.80;;;;;;;20.18;51.94;103460.34;5024381;27;96870;-79
2023/12/15 13:52:35;;;;;;;9.98;3.90;;;;;;;20.41;51.25;103452.41;5011470;28;97167;-71
2023/12/15 13:55:03;;;;;;;4.00;3.08;;;;;;;20.58;50.85;103454.78;5013840;27;97475;-71
2023/12/15 13:57:29;;;;;;;4.53;3.20;;;;;;;20.69;50.79;103454.00;5028732;27;96816;-78
2023/12/15 13:59:56;;;;;;;4.60;3.30;;;;;;;20.73;50.48;103450.94;5019303;27;99147;-78
2023/12/15 14:02:23;;;;;;;4.55;3.08;;;;;;;20.80;50.03;103463.16;5027576;27;96831;-79
2023/12/15 14:04:49;;;;;;;5.78;2.92;;;;;;;20.85;49.81;103463.72;5021110;27;97946;-78
2023/12/15 14:07:16;;;;;;;4.20;3.13;;;;;;;20.91;49.86;103466.00;5015836;28;99409;-78
2023/12/15 14:09:43;;;;;;;3.85;3.00;;;;;;;20.99;49.61;103473.63;5021099;27;98331;-78
2023/12/15 14:12:09;;;;;;;6.38;3.33;;;;;;;21.05;49.89;103470.44;5043211;27;99252;-79
2023/12/15 14:14:36;;;;;;;4.97;3.17;;;;;;;21.12;49.37;103468.13;5023216;28;96903;-80
2023/12/15 14:17:03;;;;;;;5.10;2.70;;;;;;;21.19;49.29;103474.88;5034433;27;98347;-76
2023/12/15 14:19:31;;;;;;;5.78;3.08;;;;;;;21.24;48.71;103464.53;5025587;27;97458;-76
2023/12/15 14:21:57;;;;;;;4.05;3.00;;;;;;;21.31;48.73;103470.41;5028889;28;96724;-76
2023/12/15 14:24:24;;;;;;;6.80;3.53;;;;;;;21.35;48.45;103480.13;5027473;28;96812;-77
2023/12/15 14:26:51;;;;;;;6.55;3.40;;;;;;;21.37;48.29;103487.22;5025635;27;97729;-77
2023/12/15 14:29:17;;;;;;;6.13;3.00;;;;;;;21.41;48.19;103496.06;5024813;27;98848;-77
2023/12/15 14:31:44;;;;;;;4.30;2.70;;;;;;;21.43;48.33;103503.16;5014816;28;96879;-78
2023/12/15 14:34:11;;;;;;;4.43;3.17;;;;;;;21.46;47.78;103507.50;5001981;27;98663;-78
2023/12/15 14:36:38;;;;;;;4.88;3.20;;;;;;;21.48;47.63;103520.09;5010656;28;97904;-78
2023/12/15 14:41:08;;;;;;;5.85;3.33;;;;;;;21.49;47.77;103529.16;4972805;28;97272;-77
2023/12/15 14:43:37;;;;;;;3.90;2.90;;;;;;;21.50;47.43;103533.63;4912564;28;98389;-78
2023/12/15 14:46:04;;;;;;;4.70;3.05;;;;;;;21.51;47.62;103530.78;4909258;28;97112;-77
2023/12/15 14:48:30;;;;;;;4.43;3.20;;;;;;;21.54;47.08;103529.69;4876105;28;97407;-76
2023/12/15 14:50:57;;;;;;;5.07;2.58;;;;;;;21.54;47.19;103536.03;4921144;28;96946;-78
2023/12/15 14:53:24;;;;;;;4.50;3.00;;;;;;;21.56;46.93;103538.69;4907579;28;97011;-78
2023/12/15 14:55:51;;;;;;;3.85;3.00;;;;;;;21.58;47.00;103533.09;4905238;28;97500;-79
2023/12/15 15:00:12;;;;;;;5.57;3.20;;;;;;;21.55;47.01;103532.34;5024708;27;96609;-78
2023/12/15 15:02:39;;;;;;;3.63;2.70;;;;;;;21.56;46.88;103525.88;5028988;27;96772;-76
2023/12/15 15:05:06;;;;;;;3.65;2.63;;;;;;;21.58;46.80;103525.75;5020002;28;98208;-76
2023/12/15 15:07:35;;;;;;;4.88;3.35;;;;;;;21.59;46.76;103527.50;5009466;28;97436;-76
2023/12/15 15:10:03;;;;;;;5.15;3.10;;;;;;;21.60;46.57;103529.25;5017333;28;97290;-76
2023/12/15 15:13:56;;;;;;;6.38;3.03;;;;;;;21.58;46.45;103528.50;5051676;27;1327140;-77
2023/12/15 15:16:23;;;;;;;5.05;3.13;;;;;;;21.56;46.30;103528.63;5041222;27;96853;-77
2023/12/15 15:18:50;;;;;;;4.53;3.03;;;;;;;21.58;46.63;103533.09;5064166;27;98574;-77
2023/12/15 15:21:16;;;;;;;3.08;2.42;;;;;;;21.56;46.23;103534.09;5078274;27;96694;-77
2023/12/15 15:23:43;;;;;;;3.47;2.60;;;;;;;21.55;46.34;103540.53;5079327;27;96855;-77
2023/12/15 15:26:10;;;;;;;4.72;2.78;;;;;;;21.54;46.12;103541.50;5078636;27;99490;-77
2023/12/15 15:28:36;;;;;;;6.55;3.05;;;;;;;21.53;46.15;103528.81;5082636;27;96549;-77
2023/12/15 15:31:03;;;;;;;3.83;2.55;;;;;;;21.51;46.14;103539.00;5064990;27;98813;-77
2023/12/15 15:33:30;;;;;;;2.97;2.30;;;;;;;21.52;46.07;103542.59;5062969;27;96664;-77
2023/12/15 15:35:57;;;;;;;4.43;2.75;;;;;;;21.50;46.04;103545.44;5065344;27;96845;-73
2023/12/15 15:38:26;;;;;;;4.95;2.72;;;;;;;21.51;45.96;103552.66;5083147;27;97355;-80
2023/12/15 15:40:53;;;;;;;3.75;2.60;;;;;;;21.52;46.07;103554.41;5074334;27;96938;-80
2023/12/15 15:43:20;;;;;;;5.72;2.95;;;;;;;21.53;45.89;103549.81;5096367;27;97355;-80
2023/12/15 15:45:46;;;;;;;6.03;3.05;;;;;;;21.53;46.15;103556.16;5067337;27;97119;-80
2023/12/15 15:48:13;;;;;;;3.47;2.67;;;;;;;21.55;45.94;103562.41;5080555;27;97983;-79
2023/12/15 15:50:40;;;;;;;4.90;2.55;;;;;;;21.55;45.58;103573.34;5050488;27;99330;-77
2023/12/15 15:53:07;;;;;;;4.03;2.72;;;;;;;21.58;45.56;103574.13;5063585;27;97501;-87
2023/12/15 15:55:34;;;;;;;4.00;2.72;;;;;;;21.58;45.76;103579.59;5051994;27;96706;-87
2023/12/15 15:58:01;;;;;;;3.15;2.53;;;;;;;21.58;45.89;103591.41;5068789;27;99884;-84
2023/12/15 16:00:27;;;;;;;4.28;2.70;;;;;;;21.60;45.73;103591.28;5066177;27;97964;-90
2023/12/15 16:02:54;;;;;;;4.30;2.67;;;;;;;21.61;45.66;103601.22;5049370;27;97862;-77
2023/12/15 16:05:21;;;;;;;4.22;3.08;;;;;;;21.60;45.58;103597.63;5081227;27;96890;-76
2023/12/15 16:07:49;;;;;;;4.78;2.45;;;;;;;21.60;45.81;103594.88;5061557;27;98005;-74
2023/12/15 16:10:16;;;;;;;4.75;2.78;;;;;;;21.59;45.72;103589.53;5056277;27;99606;-74
2023/12/15 16:12:43;;;;;;;3.95;2.60;;;;;;;21.58;45.66;103591.41;5066158;27;97701;-75
2023/12/15 16:15:10;;;;;;;4.28;3.10;;;;;;;21.57;45.89;103597.84;5078892;27;97212;-74
2023/12/15 16:17:37;;;;;;;6.63;2.60;;;;;;;21.57;45.39;103595.13;5082958;27;98046;-74
2023/12/15 16:20:06;;;;;;;4.75;2.80;;;;;;;21.56;45.58;103591.50;5086038;27;97271;-75
2023/12/15 16:22:33;;;;;;;3.95;2.70;;;;;;;21.55;45.34;103588.84;5084339;27;96790;-75
2023/12/15 16:24:59;;;;;;;4.63;2.72;;;;;;;21.54;45.57;103585.25;5054665;27;96533;-75
2023/12/15 16:27:26;;;;;;;3.38;2.30;;;;;;;21.53;45.69;103577.16;5065022;27;97656;-75
2023/12/15 16:29:53;;;;;;;4.13;2.65;;;;;;;21.51;45.39;103574.53;5062041;27;96720;-76
2023/12/15 16:32:19;;;;;;;4.18;2.22;;;;;;;21.51;45.47;103570.94;5033590;27;96845;-75
2023/12/15 16:34:46;;;;;;;3.13;2.35;;;;;;;21.51;45.39;103565.47;5056255;27;97612;-75
2023/12/15 16:37:13;;;;;;;3.80;2.75;;;;;;;21.48;45.36;103558.34;5063559;27;97477;-75
2023/12/15 16:39:40;;;;;;;6.03;2.42;;;;;;;21.48;45.34;103557.50;5036600;27;97793;-75
2023/12/15 16:42:08;;;;;;;6.25;2.58;;;;;;;21.47;45.48;103563.94;5071432;27;98364;-75
2023/12/15 16:44:35;;;;;;;4.10;2.65;;;;;;;21.45;45.18;103566.78;5039071;27;97363;-76
2023/12/15 16:47:01;;;;;;;4.63;2.50;;;;;;;21.45;45.43;103575.00;5056945;27;97125;-75
2023/12/15 16:49:28;;;;;;;3.60;2.30;;;;;;;21.44;44.95;103583.31;5057222;27;96640;-75
2023/12/15 16:51:55;;;;;;;3.33;2.35;;;;;;;21.43;44.73;103587.91;5056129;27;96835;-75
2023/12/15 16:54:22;;;;;;;4.07;2.58;;;;;;;21.42;45.27;103607.16;5056164;27;97124;-76
2023/12/15 16:56:49;;;;;;;3.83;2.60;;;;;;;21.42;45.08;103615.34;5061527;27;97613;-76
2023/12/15 16:59:16;;;;;;;4.68;2.35;;;;;;;21.40;45.01;103615.47;5047020;27;97263;-75
2023/12/15 17:01:42;;;;;;;3.22;2.20;;;;;;;21.40;45.08;103618.22;5045340;27;96792;-75
2023/12/15 17:04:09;;;;;;;5.53;2.55;;;;;;;21.38;45.29;103611.97;5047166;27;97551;-75
2023/12/15 17:06:36;;;;;;;5.10;2.38;;;;;;;21.38;44.89;103624.78;5068355;27;97379;-76
2023/12/15 17:09:03;;;;;;;3.15;2.35;;;;;;;21.37;45.00;103626.63;5060556;27;98787;-76
2023/12/15 17:11:30;;;;;;;5.03;2.85;;;;;;;21.36;45.11;103630.34;5052594;27;96885;-75
2023/12/15 17:13:56;;;;;;;3.83;2.15;;;;;;;21.36;45.05;103624.00;5065917;27;97569;-75
2023/12/15 17:16:23;;;;;;;3.00;2.60;;;;;;;21.35;45.00;103646.88;5063569;27;97960;-75
2023/12/15 17:18:50;;;;;;;3.42;2.25;;;;;;;21.34;45.00;103651.47;5058451;27;97459;-75
2023/12/15 17:21:17;;;;;;;3.50;2.22;;;;;;;21.34;45.08;103653.31;5047834;27;96699;-75
2023/12/15 17:23:44;;;;;;;3.38;2.15;;;;;;;21.32;44.87;103656.16;5047128;27;96883;-76
2023/12/15 17:26:16;;;;;;;2.50;2.05;;;;;;;21.33;45.02;103654.31;5051985;27;99518;-76
2023/12/15 17:28:44;;;;;;;3.13;2.67;;;;;;;21.31;44.83;103638.00;5067136;27;96829;-76
2023/12/15 17:31:10;;;;;;;4.18;2.45;;;;;;;21.31;44.84;103637.13;5072316;27;96651;-76
2023/12/15 17:33:37;;;;;;;3.10;2.13;;;;;;;21.30;45.07;103644.47;5060561;27;96817;-75
2023/12/15 17:36:04;;;;;;;3.45;2.20;;;;;;;21.29;44.82;103653.66;5034760;27;99035;-75
2023/12/15 17:38:31;;;;;;;3.80;2.25;;;;;;;21.27;45.15;103650.16;5058879;27;97366;-75
2023/12/15 17:40:58;;;;;;;3.92;2.08;;;;;;;21.28;44.82;103638.25;5072043;27;96819;-75
2023/12/15 17:43:24;;;;;;;4.47;2.60;;;;;;;21.27;44.85;103628.28;5070853;27;97409;-75
2023/12/15 17:45:51;;;;;;;3.15;2.17;;;;;;;21.27;44.95;103622.81;5069706;27;96742;-76
2023/12/15 17:48:20;;;;;;;3.75;2.40;;;;;;;21.25;45.04;103627.53;5057389;27;96971;-76
2023/12/15 17:50:48;;;;;;;4.50;2.80;;;;;;;21.24;45.21;103626.66;5072757;27;96754;-76
2023/12/15 17:53:15;;;;;;;3.67;2.33;;;;;;;21.24;45.22;103642.19;5043730;27;96849;-76
2023/12/15 17:55:42;;;;;;;4.38;2.30;;;;;;;21.24;44.92;103639.44;5050183;27;96803;-76
2023/12/15 17:58:11;;;;;;;5.68;2.65;;;;;;;21.23;45.00;103638.56;5054447;27;99494;-76
2023/12/15 18:00:44;;;;;;;5.47;2.50;;;;;;;21.24;45.12;103653.13;5075632;27;96889;-75
2023/12/15 18:03:11;;;;;;;3.67;2.17;;;;;;;21.21;44.93;103648.72;5069121;27;96833;-75
2023/12/15 18:05:37;;;;;;;3.25;2.22;;;;;;;21.22;44.91;103628.63;5050295;27;97497;-76
2023/12/15 18:08:04;;;;;;;4.10;2.40;;;;;;;21.22;45.12;103624.97;5034194;27;97586;-76
2023/12/15 18:10:31;;;;;;;3.55;2.05;;;;;;;21.20;45.10;103630.56;5069106;27;96874;-76
2023/12/15 18:12:58;;;;;;;5.68;2.40;;;;;;;21.21;44.86;103634.16;5042304;27;96865;-76
2023/12/15 18:15:24;;;;;;;3.53;2.35;;;;;;;21.20;45.12;103638.75;5054980;27;99513;-76
2023/12/15 18:17:51;;;;;;;4.95;2.50;;;;;;;21.20;44.48;103637.88;5033985;27;100019;-75
2023/12/15 18:20:18;;;;;;;2.95;2.33;;;;;;;21.20;44.77;103654.28;5063133;27;96694;-76
2023/12/15 18:22:45;;;;;;;4.93;2.45;;;;;;;21.20;45.07;103667.94;5047888;27;96959;-75
2023/12/15 18:25:15;;;;;;;4.07;2.10;;;;;;;21.18;44.84;103664.44;5062494;27;97559;-76
2023/12/15 18:27:42;;;;;;;5.18;2.42;;;;;;;21.19;44.77;103655.28;5045983;27;97597;-75
2023/12/15 18:30:10;;;;;;;3.97;2.20;;;;;;;21.18;45.06;103653.53;5061956;27;97314;-75
2023/12/15 18:32:37;;;;;;;5.07;2.40;;;;;;;21.17;44.90;103668.16;5071362;27;96795;-74
2023/12/15 18:35:04;;;;;;;3.90;2.05;;;;;;;21.17;45.15;103669.03;5068100;27;97682;-74
2023/12/15 18:37:31;;;;;;;3.17;2.05;;;;;;;21.16;45.19;103670.03;5044953;27;97610;-75
2023/12/15 18:39:57;;;;;;;6.13;2.80;;;;;;;21.16;45.07;103677.34;5060306;27;96724;-74
2023/12/15 18:42:24;;;;;;;3.47;2.30;;;;;;;21.16;44.77;103686.44;5062311;27;96935;-75
2023/12/15 18:44:51;;;;;;;4.07;2.47;;;;;;;21.15;45.09;103689.28;5063061;27;96929;-75
2023/12/15 18:47:18;;;;;;;5.22;2.13;;;;;;;21.15;45.16;103687.41;5070769;27;99300;-74
2023/12/15 18:49:45;;;;;;;4.72;2.13;;;;;;;21.15;44.94;103690.16;5053185;27;96937;-74
2023/12/15 18:52:13;;;;;;;3.53;1.95;;;;;;;21.15;45.13;103690.16;5050961;27;96864;-74
2023/12/15 18:54:39;;;;;;;7.70;2.50;;;;;;;21.14;44.95;103696.59;5049254;27;97431;-75
2023/12/15 18:57:06;;;;;;;3.83;2.17;;;;;;;21.14;45.11;103693.00;5053162;27;97541;-75
2023/12/15 18:59:32;;;;;;;6.28;2.28;;;;;;;21.14;44.99;103693.00;5068102;27;97656;-75
2023/12/15 19:01:59;;;;;;;4.05;2.13;;;;;;;21.14;44.86;103688.41;5037495;27;96941;-75
2023/12/15 19:04:27;;;;;;;3.83;2.03;;;;;;;21.14;44.83;103695.72;5072534;27;97695;-75
2023/12/15 19:06:54;;;;;;;3.42;2.25;;;;;;;21.13;44.92;103700.31;5072140;27;96790;-75
2023/12/15 19:09:21;;;;;;;2.83;2.10;;;;;;;21.14;45.21;103699.31;5037971;27;96825;-75
2023/12/15 19:11:52;;;;;;;3.45;2.13;;;;;;;21.12;45.44;103694.97;5062068;27;97864;-75
2023/12/15 19:14:20;;;;;;;4.68;2.38;;;;;;;21.13;45.09;103700.31;5051966;27;97439;-76
2023/12/15 19:16:47;;;;;;;6.75;2.38;;;;;;;21.14;44.95;103696.59;5054257;27;97832;-75
2023/12/15 19:19:15;;;;;;;2.47;1.88;;;;;;;21.13;44.80;103697.59;5061788;27;97107;-75
2023/12/15 19:21:42;;;;;;;2.88;1.85;;;;;;;21.13;44.89;103700.31;5047338;27;96914;-75
2023/12/15 19:24:09;;;;;;;5.10;2.25;;;;;;;21.14;44.96;103690.25;5059260;27;98035;-75
2023/12/15 19:26:36;;;;;;;4.45;2.20;;;;;;;21.13;45.22;103694.84;5037460;27;96783;-74
2023/12/15 19:29:02;;;;;;;3.97;1.92;;;;;;;21.14;44.86;103701.19;5047657;27;96786;-75
2023/12/15 19:31:29;;;;;;;2.90;2.30;;;;;;;21.14;45.56;103698.47;5048732;27;97274;-76
2023/12/15 19:33:56;;;;;;;5.60;2.72;;;;;;;21.13;44.85;103697.59;5061847;27;97214;-75
2023/12/15 19:36:23;;;;;;;3.33;1.73;;;;;;;21.13;45.13;103693.97;5048606;27;98535;-75
2023/12/15 19:38:49;;;;;;;3.55;1.60;;;;;;;21.13;45.08;103704.91;5054257;27;96883;-75
2023/12/15 19:41:17;;;;;;;5.65;2.00;;;;;;;21.14;45.23;103709.38;5048947;27;97297;-75
2023/12/15 19:43:44;;;;;;;4.13;1.98;;;;;;;21.14;44.72;103729.38;5041391;27;96769;-75
2023/12/15 19:46:21;;;;;;;3.53;2.33;;;;;;;21.12;44.73;103734.09;5048340;27;98678;-75
2023/12/15 19:48:49;;;;;;;4.15;1.98;;;;;;;21.12;45.07;103738.69;5056114;27;97144;-75
2023/12/15 19:51:20;;;;;;;4.00;2.17;;;;;;;21.12;44.99;103746.88;5048928;27;96830;-75
2023/12/15 19:53:46;;;;;;;2.83;2.00;;;;;;;21.12;45.03;103752.34;5045074;27;98134;-75
2023/12/15 19:56:24;;;;;;;4.38;2.15;;;;;;;21.14;45.20;103755.84;5066854;27;97636;-75
2023/12/15 19:58:51;;;;;;;3.08;1.95;;;;;;;21.13;44.91;103765.03;5058724;27;96798;-75
2023/12/15 20:01:32;;;;;;;3.90;2.22;;;;;;;21.12;45.15;103771.47;5069808;27;97546;-75
2023/12/15 20:04:01;;;;;;;3.42;2.00;;;;;;;21.11;44.85;103772.47;5064596;27;98654;-75
2023/12/15 20:06:32;;;;;;;4.07;1.80;;;;;;;21.11;45.24;103778.78;5063027;27;96805;-75
2023/12/15 20:09:04;;;;;;;5.22;1.98;;;;;;;21.11;45.09;103787.00;5042691;27;96721;-75
2023/12/15 20:11:35;;;;;;;5.00;2.08;;;;;;;21.11;44.86;103788.84;5052295;27;97061;-75
2023/12/15 20:14:04;;;;;;;2.78;1.70;;;;;;;21.11;44.91;103783.38;5034732;27;98935;-75
2023/12/15 20:16:32;;;;;;;3.53;1.80;;;;;;;21.11;45.07;103777.91;5053665;27;97321;-75
2023/12/15 20:19:00;;;;;;;3.33;1.80;;;;;;;21.11;45.12;103783.38;5065455;27;96692;-75
2023/12/15 20:21:31;;;;;;;3.13;2.00;;;;;;;21.10;45.04;103779.78;5056588;27;96669;-75
2023/12/15 20:23:58;;;;;;;2.80;1.63;;;;;;;21.11;44.90;103786.13;5064475;27;96718;-75
2023/12/15 20:26:25;;;;;;;4.22;2.00;;;;;;;21.11;45.26;103783.38;5044794;27;97137;-75
2023/12/15 20:28:53;;;;;;;2.70;1.80;;;;;;;21.11;44.72;103776.06;5072458;27;96752;-75
2023/12/15 20:31:21;;;;;;;3.15;2.00;;;;;;;21.10;45.12;103777.03;5068486;27;97295;-75
2023/12/15 20:33:48;;;;;;;3.25;1.85;;;;;;;21.10;44.76;103771.59;5069709;27;97765;-75
2023/12/15 20:36:19;;;;;;;5.35;2.22;;;;;;;21.11;45.01;103767.88;5054128;27;99837;-76
2023/12/15 20:38:47;;;;;;;3.08;1.90;;;;;;;21.10;45.26;103763.38;5050748;27;97975;-75
2023/12/15 20:41:18;;;;;;;2.70;1.90;;;;;;;21.10;44.86;103768.84;5042915;27;96841;-75
2023/12/15 20:43:46;;;;;;;3.90;1.90;;;;;;;21.10;44.93;103771.59;5070017;27;96619;-75
2023/12/15 20:46:15;;;;;;;2.20;1.63;;;;;;;21.11;45.00;103772.47;5066502;27;97446;-75
2023/12/15 20:48:42;;;;;;;2.55;1.80;;;;;;;21.11;44.91;103775.19;5049399;27;96654;-75
2023/12/15 20:51:15;;;;;;;3.33;1.98;;;;;;;21.10;45.20;103771.59;5052284;27;96828;-76
2023/12/15 20:53:42;;;;;;;3.58;2.00;;;;;;;21.11;44.87;103777.91;5070443;27;96716;-74
2023/12/15 20:56:08;;;;;;;4.13;2.00;;;;;;;21.11;45.10;103772.47;5053182;27;97024;-75
2023/12/15 20:58:35;;;;;;;3.35;2.10;;;;;;;21.10;45.07;103767.97;5043145;27;97248;-75
2023/12/15 21:01:02;;;;;;;2.60;1.88;;;;;;;21.10;45.05;103771.59;5061879;27;96531;-75
2023/12/15 21:03:29;;;;;;;4.43;2.17;;;;;;;21.11;45.20;103777.91;5050006;27;98579;-75
2023/12/15 21:05:55;;;;;;;5.20;2.00;;;;;;;21.11;45.10;103783.38;5066847;27;97272;-74
2023/12/15 21:08:22;;;;;;;3.13;1.73;;;;;;;21.12;44.85;103779.66;5052546;27;96949;-75
2023/12/15 21:10:49;;;;;;;3.15;1.75;;;;;;;21.10;45.10;103768.84;5052535;27;96856;-75
2023/12/15 21:13:18;;;;;;;4.00;1.90;;;;;;;21.11;44.85;103773.34;5070396;27;96794;-75
2023/12/15 21:15:46;;;;;;;2.35;1.55;;;;;;;21.11;45.06;103781.53;5051885;27;96918;-75
2023/12/15 21:18:15;;;;;;;3.70;2.10;;;;;;;21.12;44.99;103774.22;5042623;27;96662;-75
2023/12/15 21:20:42;;;;;;;4.03;1.67;;;;;;;21.11;44.88;103775.19;5052763;27;96843;-75
2023/12/15 21:23:09;;;;;;;3.53;1.70;;;;;;;21.11;45.03;103773.34;5063492;27;98573;-75
2023/12/15 21:25:36;;;;;;;1.88;1.40;;;;;;;21.12;45.00;103779.66;5063400;27;97949;-74
2023/12/15 21:28:03;;;;;;;3.72;1.73;;;;;;;21.11;45.17;103778.78;5052583;27;96618;-74
2023/12/15 21:30:31;;;;;;;2.92;1.80;;;;;;;21.11;44.91;103777.91;5052288;27;97002;-75
2023/12/15 21:32:58;;;;;;;3.13;1.92;;;;;;;21.11;45.03;103781.53;5063191;27;96939;-75
2023/12/15 21:35:27;;;;;;;4.80;2.13;;;;;;;21.11;44.87;103786.13;5064100;27;97833;-74
2023/12/15 21:37:59;;;;;;;3.83;1.50;;;;;;;21.11;45.14;103781.53;5062793;27;96906;-75
2023/12/15 21:40:26;;;;;;;3.13;1.40;;;;;;;21.10;44.89;103782.50;5050365;27;97233;-75
2023/12/15 21:42:53;;;;;;;3.85;1.95;;;;;;;21.11;45.07;103767.88;5040912;27;100251;-75
2023/12/15 21:45:19;;;;;;;3.25;1.60;;;;;;;21.11;44.86;103780.66;5050815;27;96719;-75
2023/12/15 21:47:46;;;;;;;2.50;1.50;;;;;;;21.11;45.03;103772.47;5061419;27;97082;-75
2023/12/15 21:50:13;;;;;;;2.17;1.42;;;;;;;21.11;45.06;103781.53;5067906;27;97152;-74
2023/12/15 21:52:40;;;;;;;3.22;1.60;;;;;;;21.11;44.93;103780.66;5042314;27;99210;-74
2023/12/15 21:55:09;;;;;;;2.58;1.90;;;;;;;21.11;45.01;103784.25;5056380;27;96711;-74
2023/12/15 21:57:36;;;;;;;2.47;1.65;;;;;;;21.11;44.87;103775.19;5054808;27;96695;-74
2023/12/15 22:00:05;;;;;;;3.03;1.58;;;;;;;21.12;45.05;103782.41;5054139;27;96991;-74
2023/12/15 22:02:32;;;;;;;3.22;1.63;;;;;;;21.12;44.85;103785.13;5048270;27;100415;-74
2023/12/15 22:04:58;;;;;;;2.65;1.50;;;;;;;21.11;44.94;103783.38;5053702;27;97282;-75
2023/12/15 22:07:26;;;;;;;1.70;1.27;;;;;;;21.11;44.86;103784.25;5051921;27;97168;-75
2023/12/15 22:09:52;;;;;;;2.97;1.60;;;;;;;21.11;45.22;103781.53;5066244;27;97534;-75
2023/12/15 22:12:19;;;;;;;2.78;1.45;;;;;;;21.12;45.16;103796.94;5053413;27;99501;-75
2023/12/15 22:14:46;;;;;;;2.85;1.63;;;;;;;21.12;45.01;103782.41;5073263;27;97928;-75
2023/12/15 22:17:13;;;;;;;2.55;1.60;;;;;;;21.12;44.75;103786.00;5071786;27;96871;-75
2023/12/15 22:19:40;;;;;;;3.13;1.48;;;;;;;21.11;44.82;103780.66;5074202;27;97237;-75
2023/12/15 22:22:07;;;;;;;2.75;1.27;;;;;;;21.11;44.94;103784.25;5051439;27;100896;-75
2023/12/15 22:24:34;;;;;;;2.83;1.90;;;;;;;21.11;45.03;103786.13;5067196;27;97339;-74
2023/12/15 22:27:01;;;;;;;3.60;1.52;;;;;;;21.11;45.06;103792.47;5073382;27;96742;-74
2023/12/15 22:29:27;;;;;;;2.78;1.50;;;;;;;21.11;44.82;103788.84;5067551;27;96783;-74
2023/12/15 22:31:54;;;;;;;2.03;1.38;;;;;;;21.12;45.00;103796.06;5069773;27;96961;-74
2023/12/15 22:34:21;;;;;;;2.03;1.27;;;;;;;21.11;44.90;103797.06;5068828;27;97374;-74
2023/12/15 22:36:47;;;;;;;2.90;1.63;;;;;;;21.11;44.90;103806.13;5067292;27;96881;-75
2023/12/15 22:39:14;;;;;;;2.83;1.40;;;;;;;21.12;44.97;103812.47;5060854;27;96980;-74
2023/12/15 22:41:44;;;;;;;2.70;1.40;;;;;;;21.11;44.78;103813.44;5047432;27;98186;-75
2023/12/15 22:44:11;;;;;;;2.95;1.60;;;;;;;21.12;45.03;103823.41;5059176;27;97766;-75
2023/12/15 22:46:44;;;;;;;2.58;1.33;;;;;;;21.11;45.05;103819.78;5047128;27;96894;-75
2023/12/15 22:49:10;;;;;;;2.08;1.20;;;;;;;21.11;45.22;103814.31;5061914;27;96949;-74
2023/12/15 22:51:41;;;;;;;2.42;1.52;;;;;;;21.11;44.92;103817.06;5033618;27;98648;-75
2023/12/15 22:54:12;;;;;;;2.22;1.17;;;;;;;21.11;44.65;103808.84;5061201;27;98230;-74
2023/12/15 22:56:42;;;;;;;2.63;1.58;;;;;;;21.12;44.84;103812.47;5048133;27;97361;-75
2023/12/15 22:59:12;;;;;;;2.00;1.20;;;;;;;21.11;44.81;103805.25;5047131;27;96961;-75
2023/12/15 23:01:39;;;;;;;2.05;1.20;;;;;;;21.11;44.84;103799.78;5040836;27;99260;-75
2023/12/15 23:04:06;;;;;;;3.28;1.60;;;;;;;21.11;44.94;103792.47;5061587;27;99134;-75
2023/12/15 23:06:33;;;;;;;2.47;1.60;;;;;;;21.11;44.88;103803.41;5050945;27;96816;-75
2023/12/15 23:09:00;;;;;;;2.95;1.42;;;;;;;21.11;45.06;103808.84;5043828;27;97113;-76
2023/12/15 23:11:26;;;;;;;2.97;1.70;;;;;;;21.12;44.72;103812.47;5060641;27;97596;-76
2023/12/15 23:13:53;;;;;;;2.50;1.58;;;;;;;21.11;44.99;103806.13;5067165;27;96975;-76
2023/12/15 23:16:20;;;;;;;2.60;1.40;;;;;;;21.12;45.09;103807.00;5061198;27;96870;-75
2023/12/15 23:18:47;;;;;;;2.25;1.00;;;;;;;21.12;44.87;103820.66;5051658;27;96805;-75
2023/12/15 23:21:14;;;;;;;2.65;1.33;;;;;;;21.11;44.97;103807.97;5068271;27;98363;-75
2023/12/15 23:23:54;;;;;;;2.08;1.00;;;;;;;21.11;44.97;103806.13;5060587;27;96640;-76
2023/12/15 23:26:20;;;;;;;2.58;1.30;;;;;;;21.12;45.32;103807.00;5051737;27;96943;-76
2023/12/15 23:28:47;;;;;;;2.25;1.50;;;;;;;21.12;44.97;103804.28;5069128;27;96903;-76
2023/12/15 23:31:14;;;;;;;2.85;1.70;;;;;;;21.11;44.73;103797.06;5046069;27;96850;-76
2023/12/15 23:33:40;;;;;;;1.73;1.30;;;;;;;21.12;44.79;103793.34;5071351;27;97554;-76
2023/12/15 23:36:12;;;;;;;2.67;1.40;;;;;;;21.13;44.81;103790.50;5034132;27;97850;-75
2023/12/15 23:38:40;;;;;;;1.92;1.25;;;;;;;21.12;44.83;103793.34;5067177;27;96858;-76
2023/12/15 23:41:07;;;;;;;2.15;1.13;;;;;;;21.12;44.66;103799.69;5054573;27;98632;-76
2023/12/15 23:43:34;;;;;;;2.50;1.50;;;;;;;21.12;44.92;103798.81;5070757;27;97843;-76
2023/12/15 23:46:00;;;;;;;1.63;1.08;;;;;;;21.11;45.01;103794.31;5042783;27;97054;-76
2023/12/15 23:48:27;;;;;;;2.00;1.27;;;;;;;21.12;44.92;103807.88;5069907;27;96789;-75
2023/12/15 23:50:54;;;;;;;1.90;1.13;;;;;;;21.11;44.62;103803.41;5074421;27;97896;-76
2023/12/15 23:53:20;;;;;;;2.75;1.25;;;;;;;21.12;44.69;103804.28;5053187;27;97675;-75
2023/12/15 23:55:47;;;;;;;3.20;1.63;;;;;;;21.12;44.80;103805.16;5066614;27;96617;-76
2023/12/15 23:58:14;;;;;;;1.50;0.93;;;;;;;21.12;44.68;103804.28;5066158;27;96783;-76
